Ashley, Illinois
Current Conditions -  °F | °C
As of 9:15 AM on Thursday 30 Oct 2014 (Local Time) from KENL Reporting Station
Clear Clear  
Wind Chill: 42°   Ceiling: Unl
Heat Index: 46°   Visibility: 10mi
Dew Point: 37°   Wind: 8mph
Humidity: 69%   Direction: 150°SSE
Pressure: 30.16"   Gusts: NA
Location:  38.33°N, 89.19°W
Report Text: KENL 301415Z AUTO 15007KT 10SM CLR 08/03 A3016 RMK AO2 T00800026
Loading
Personal Weather Stations






























Interactive Weather Map
Tropical Storm Tracking
New forecast layout! Learn more

10-Day Weather Forecast

Advertisements
Track Severe Weather on mobile